Cangucu, Brazil
Current Conditions -  °F | °C
As of 2:00 PM on Sunday 23 Nov 2014 (Local Time) from SBSM Reporting Station
Few Clouds Few Clouds  
Wind Chill: 79°   Ceiling: Unl
Heat Index: 79°   Visibility: 6mi
Dew Point: 54°   Wind: 9mph
Humidity: 42%   Direction: 130°SE
Pressure: 29.94"   Gusts: NA
Location:  31.4°S, 52.68°W
Report Text: SBSM 231600Z 13008KT 070V180 9999 FEW040 26/12 Q1014
Loading
Personal Weather Stations






























Interactive Weather Map New forecast layout! Learn more

10-Day Weather Forecast

Advertisements
Track Severe Weather on mobile